Time;durP1;ratioP1;P1;durP2;ratioP2;P2;SDS_P1;SDS_P2;PMS_P1;PMS_P2;Temp;Humidity;BMP_temperature;BMP_pressure;BME280_temperature;BME280_humidity;BME280_pressure;Samples;Min_cycle;Max_cycle;Signal;HPM_P1;HPM_P2
2021/05/25 00:00:20;;;;;;;2.75;0.90;;;9.60;99.90;;;;;;4990588;28;20023;-56
2021/05/25 00:02:47;;;;;;;1.17;0.65;;;9.60;99.90;;;;;;4994247;28;20121;-59
2021/05/25 00:05:16;;;;;;;4.00;1.35;;;9.60;99.90;;;;;;4999801;28;20023;-59
2021/05/25 00:07:42;;;;;;;5.22;1.63;;;9.50;99.90;;;;;;4992805;28;20029;-59
2021/05/25 00:10:08;;;;;;;2.60;0.73;;;9.50;99.90;;;;;;4990183;28;20030;-56
2021/05/25 00:12:35;;;;;;;2.78;0.80;;;9.50;99.90;;;;;;4989915;28;20055;-55
2021/05/25 00:15:03;;;;;;;1.63;0.90;;;9.40;99.90;;;;;;4995771;28;20032;-55
2021/05/25 00:17:28;;;;;;;5.00;1.10;;;9.40;99.90;;;;;;4990335;28;20018;-54
2021/05/25 00:19:54;;;;;;;3.33;0.90;;;9.40;99.90;;;;;;4989885;28;20495;-55
2021/05/25 00:22:20;;;;;;;1.63;1.08;;;9.40;99.90;;;;;;4990136;28;20462;-56
2021/05/25 00:24:45;;;;;;;3.47;0.80;;;9.40;99.90;;;;;;4985842;28;20022;-53
2021/05/25 00:27:11;;;;;;;1.60;0.73;;;9.50;99.90;;;;;;4988258;28;20022;-51
2021/05/25 00:29:36;;;;;;;2.28;0.80;;;9.50;99.90;;;;;;4994582;28;20092;-57
2021/05/25 00:32:02;;;;;;;1.48;0.73;;;9.50;99.90;;;;;;4996143;28;20036;-57
2021/05/25 00:34:28;;;;;;;5.70;1.00;;;9.50;99.90;;;;;;4991995;28;20022;-54
2021/05/25 00:36:53;;;;;;;1.13;0.70;;;9.50;99.90;;;;;;4978540;28;20502;-54
2021/05/25 00:39:19;;;;;;;3.17;0.77;;;9.50;99.90;;;;;;4991357;28;20550;-52
2021/05/25 00:41:45;;;;;;;3.13;0.98;;;9.40;99.90;;;;;;4997218;28;20546;-57
2021/05/25 00:44:10;;;;;;;2.70;0.63;;;9.40;99.90;;;;;;4989162;28;20141;-58
2021/05/25 00:46:39;;;;;;;1.13;0.60;;;9.40;99.90;;;;;;4985774;28;20030;-54
2021/05/25 00:49:05;;;;;;;2.17;0.70;;;9.40;99.90;;;;;;4983883;28;20141;-57
2021/05/25 00:51:32;;;;;;;2.35;0.80;;;9.40;99.90;;;;;;4996166;28;20030;-54
2021/05/25 00:53:58;;;;;;;4.78;0.70;;;9.40;99.90;;;;;;4976218;28;20022;-54
2021/05/25 00:56:24;;;;;;;0.68;0.50;;;9.30;99.90;;;;;;4992292;28;20022;-54
2021/05/25 00:58:51;;;;;;;0.45;0.45;;;9.30;99.90;;;;;;4993425;28;20062;-56
2021/05/25 01:01:17;;;;;;;1.20;0.50;;;9.30;99.90;;;;;;4988369;28;20554;-57
2021/05/25 01:03:43;;;;;;;0.50;0.45;;;9.30;99.90;;;;;;4991303;28;20022;-56
2021/05/25 01:06:09;;;;;;;0.75;0.50;;;9.30;99.90;;;;;;4982468;28;20092;-56
2021/05/25 01:08:37;;;;;;;1.23;0.40;;;9.30;99.90;;;;;;4993541;28;20029;-56
2021/05/25 01:11:05;;;;;;;2.00;0.85;;;9.20;99.90;;;;;;4988753;28;20041;-57
2021/05/25 01:13:40;;;;;;;1.30;0.52;;;9.20;99.90;;;;;;4985349;28;20431;-58
2021/05/25 01:16:07;;;;;;;0.50;0.40;;;9.10;99.90;;;;;;4989825;28;20395;-57
2021/05/25 01:18:33;;;;;;;3.10;0.47;;;9.10;99.90;;;;;;4989476;28;20026;-58
2021/05/25 01:20:58;;;;;;;1.17;0.50;;;9.10;99.90;;;;;;4988808;28;20034;-57
2021/05/25 01:23:24;;;;;;;1.70;0.52;;;9.00;99.90;;;;;;4989944;28;20027;-57
2021/05/25 01:25:50;;;;;;;0.93;0.40;;;8.90;99.90;;;;;;4985046;28;20492;-57
2021/05/25 01:28:19;;;;;;;1.17;0.50;;;8.90;99.90;;;;;;4988965;28;20073;-56
2021/05/25 01:30:48;;;;;;;1.77;0.68;;;8.80;99.90;;;;;;4989166;28;20034;-58
2021/05/25 01:33:15;;;;;;;1.73;0.45;;;8.70;99.90;;;;;;4989783;28;20026;-54
2021/05/25 01:35:41;;;;;;;3.22;0.40;;;8.60;99.90;;;;;;4989690;28;20026;-57
2021/05/25 01:38:09;;;;;;;1.65;0.63;;;8.60;99.90;;;;;;4986170;28;20152;-55
2021/05/25 01:40:37;;;;;;;1.40;0.32;;;8.60;99.90;;;;;;4989319;28;20480;-53
2021/05/25 01:43:03;;;;;;;2.85;0.40;;;8.50;99.90;;;;;;4989213;28;20037;-58
2021/05/25 01:45:30;;;;;;;0.95;0.30;;;8.50;99.90;;;;;;4989891;28;20403;-57
2021/05/25 01:47:58;;;;;;;0.43;0.30;;;8.50;99.90;;;;;;4986612;28;20110;-57
2021/05/25 01:50:25;;;;;;;2.25;0.60;;;8.50;99.90;;;;;;4988164;28;20037;-57
2021/05/25 01:52:56;;;;;;;0.32;0.30;;;8.40;99.90;;;;;;4988591;28;20058;-56
2021/05/25 01:55:40;;;;;;;3.47;0.55;;;8.40;99.90;;;;;;4989803;28;20460;-57
2021/05/25 01:58:07;;;;;;;2.63;0.38;;;8.40;99.90;;;;;;4978974;28;20022;-55
2021/05/25 02:00:34;;;;;;;0.70;0.50;;;8.40;99.90;;;;;;4985083;28;20507;-56
2021/05/25 02:02:59;;;;;;;2.08;0.40;;;8.40;99.90;;;;;;4988362;28;20028;-56
2021/05/25 02:05:26;;;;;;;2.08;0.40;;;8.40;99.90;;;;;;4989392;28;20106;-56
2021/05/25 02:07:54;;;;;;;1.95;0.43;;;8.40;99.90;;;;;;4986844;28;20555;-57
2021/05/25 02:10:33;;;;;;;0.82;0.30;;;8.40;99.90;;;;;;4989107;28;20054;-55
2021/05/25 02:13:02;;;;;;;0.57;0.30;;;8.50;99.90;;;;;;4985019;28;20542;-56
2021/05/25 02:15:29;;;;;;;0.85;0.40;;;8.50;99.90;;;;;;4993132;28;20026;-56
2021/05/25 02:17:54;;;;;;;1.42;0.40;;;8.50;99.90;;;;;;4992021;28;20019;-53
2021/05/25 02:20:20;;;;;;;0.68;0.40;;;8.50;99.90;;;;;;4989251;28;20106;-55
2021/05/25 02:22:46;;;;;;;1.48;0.40;;;8.50;99.90;;;;;;4991441;28;20103;-54
2021/05/25 02:25:12;;;;;;;0.90;0.35;;;8.50;99.90;;;;;;4993678;28;20027;-58
2021/05/25 02:27:37;;;;;;;1.08;0.40;;;8.50;99.90;;;;;;4992927;28;20034;-55
2021/05/25 02:30:04;;;;;;;0.38;0.28;;;8.50;99.90;;;;;;4992453;28;20026;-54
2021/05/25 02:32:30;;;;;;;0.75;0.40;;;8.50;99.90;;;;;;4991486;28;20403;-58
2021/05/25 02:34:55;;;;;;;2.22;0.38;;;8.50;99.90;;;;;;5005744;28;20037;-59
2021/05/25 02:37:21;;;;;;;1.35;0.40;;;8.40;99.90;;;;;;4999501;28;20030;-57
2021/05/25 02:39:47;;;;;;;0.93;0.30;;;8.40;99.90;;;;;;4993926;28;20045;-57
2021/05/25 02:42:13;;;;;;;1.45;0.43;;;8.40;99.90;;;;;;4991741;28;20102;-55
2021/05/25 02:44:38;;;;;;;0.55;0.40;;;8.40;99.90;;;;;;4992858;28;20069;-55
2021/05/25 02:47:04;;;;;;;0.55;0.40;;;8.40;99.90;;;;;;4988321;28;20030;-56
2021/05/25 02:49:30;;;;;;;3.22;0.82;;;8.40;99.90;;;;;;4988712;28;20105;-56
2021/05/25 02:51:55;;;;;;;0.57;0.43;;;8.30;99.90;;;;;;4993437;28;20022;-56
2021/05/25 02:54:21;;;;;;;0.80;0.30;;;8.30;99.90;;;;;;4989198;28;20109;-56
2021/05/25 02:56:46;;;;;;;1.25;0.50;;;8.30;99.90;;;;;;4990408;28;20416;-56
2021/05/25 02:59:12;;;;;;;1.98;0.30;;;8.30;99.90;;;;;;4992727;28;20019;-54
2021/05/25 03:01:38;;;;;;;0.82;0.30;;;8.30;99.90;;;;;;4990220;28;20030;-57
2021/05/25 03:04:03;;;;;;;0.73;0.40;;;8.30;99.90;;;;;;4990243;28;20045;-56
2021/05/25 03:06:29;;;;;;;3.67;0.50;;;8.30;99.90;;;;;;4990724;28;20033;-56
2021/05/25 03:08:54;;;;;;;1.63;0.40;;;8.30;99.90;;;;;;4990509;28;20442;-59
2021/05/25 03:11:20;;;;;;;0.68;0.50;;;8.30;99.90;;;;;;4996225;28;20033;-53
2021/05/25 03:13:46;;;;;;;1.27;0.47;;;8.30;99.90;;;;;;4990419;28;20492;-53
2021/05/25 03:16:15;;;;;;;1.55;0.65;;;8.20;99.90;;;;;;4992108;28;20026;-56
2021/05/25 03:18:40;;;;;;;2.63;0.63;;;8.20;99.90;;;;;;4963446;28;20058;-57
2021/05/25 03:21:06;;;;;;;0.80;0.43;;;8.30;99.90;;;;;;4989889;28;20069;-54
2021/05/25 03:23:31;;;;;;;2.65;0.60;;;8.30;99.90;;;;;;4990617;28;20026;-54
2021/05/25 03:26:00;;;;;;;0.70;0.40;;;8.30;99.90;;;;;;4984690;28;20034;-55
2021/05/25 03:28:25;;;;;;;0.93;0.32;;;8.30;99.90;;;;;;4989480;28;20026;-56
2021/05/25 03:30:51;;;;;;;0.73;0.38;;;8.30;99.90;;;;;;4991238;28;20025;-56
2021/05/25 03:33:16;;;;;;;1.45;0.55;;;8.40;99.90;;;;;;4959814;28;20564;-57
2021/05/25 03:35:42;;;;;;;1.33;0.40;;;8.30;99.90;;;;;;4990130;28;20068;-54
2021/05/25 03:38:08;;;;;;;1.88;0.50;;;8.30;99.90;;;;;;4989724;28;20510;-55
2021/05/25 03:40:33;;;;;;;1.23;0.68;;;8.30;99.90;;;;;;4985626;28;20550;-57
2021/05/25 03:43:00;;;;;;;1.10;0.55;;;8.40;99.90;;;;;;4976362;28;20030;-58
2021/05/25 03:45:27;;;;;;;0.63;0.40;;;8.30;99.90;;;;;;4989585;28;20022;-57
2021/05/25 03:47:54;;;;;;;1.95;0.68;;;8.30;99.90;;;;;;4985616;28;20031;-56
2021/05/25 03:50:20;;;;;;;4.03;0.43;;;8.40;99.90;;;;;;4991050;28;20033;-56
2021/05/25 03:52:48;;;;;;;1.95;0.55;;;8.40;99.90;;;;;;4990471;28;20029;-56
2021/05/25 03:55:49;;;;;;;2.38;0.60;;;8.40;99.90;;;;;;4991339;28;20165;-58
2021/05/25 04:00:59;;;;;;;;;;;8.50;99.90;;;;;;4987902;28;20082;-57
2021/05/25 04:03:25;;;;;;;2.78;0.60;;;8.40;99.90;;;;;;4984251;28;19906;-55
2021/05/25 04:05:51;;;;;;;0.85;0.52;;;8.30;99.90;;;;;;4990764;28;20026;-59
2021/05/25 04:08:17;;;;;;;1.35;0.60;;;8.20;99.90;;;;;;4986702;28;20060;-58
2021/05/25 04:10:43;;;;;;;2.15;0.40;;;8.20;99.90;;;;;;4990349;28;20023;-56
2021/05/25 04:13:09;;;;;;;4.18;0.60;;;8.20;99.90;;;;;;4985834;28;20015;-52
2021/05/25 04:15:37;;;;;;;3.15;0.65;;;8.10;99.90;;;;;;4990644;28;20007;-56
2021/05/25 04:18:03;;;;;;;2.72;0.77;;;8.10;99.90;;;;;;4985905;28;20030;-53
2021/05/25 04:20:29;;;;;;;4.22;0.60;;;8.10;99.90;;;;;;4986960;28;20052;-56
2021/05/25 04:22:55;;;;;;;4.72;0.70;;;8.00;99.90;;;;;;4990060;28;20105;-57
2021/05/25 04:25:20;;;;;;;1.50;0.55;;;8.00;99.90;;;;;;4990765;28;20034;-55
2021/05/25 04:27:46;;;;;;;1.60;0.85;;;7.90;99.90;;;;;;4989372;28;20031;-55
2021/05/25 04:30:13;;;;;;;2.30;0.80;;;8.00;99.90;;;;;;4990561;28;20050;-56
2021/05/25 04:32:38;;;;;;;3.70;0.70;;;7.90;99.90;;;;;;4989829;28;20035;-56
2021/05/25 04:35:05;;;;;;;1.67;0.70;;;7.90;99.90;;;;;;4985460;28;20023;-57
2021/05/25 04:37:31;;;;;;;3.60;0.80;;;8.00;99.90;;;;;;4989640;28;20038;-57
2021/05/25 04:39:56;;;;;;;3.67;0.68;;;7.90;99.90;;;;;;4990409;28;20030;-59
2021/05/25 04:42:22;;;;;;;0.85;0.60;;;7.90;99.90;;;;;;4986995;28;20029;-57
2021/05/25 04:44:48;;;;;;;1.10;0.50;;;8.00;99.90;;;;;;4990438;28;20019;-58
2021/05/25 04:47:13;;;;;;;1.65;0.63;;;8.00;99.90;;;;;;4991336;28;20037;-56
2021/05/25 04:49:40;;;;;;;4.95;0.80;;;8.10;99.90;;;;;;4998399;28;20105;-56
2021/05/25 04:52:06;;;;;;;4.05;0.80;;;8.10;99.90;;;;;;4995709;28;20037;-55
2021/05/25 04:54:32;;;;;;;2.38;0.70;;;8.10;99.90;;;;;;4992899;28;20029;-55
2021/05/25 04:56:57;;;;;;;7.70;0.90;;;8.20;99.90;;;;;;4989137;28;20022;-57
2021/05/25 04:59:23;;;;;;;3.75;0.55;;;8.40;99.90;;;;;;4987683;28;20018;-56
2021/05/25 05:01:49;;;;;;;1.25;0.65;;;8.50;99.90;;;;;;4988680;28;20400;-55
2021/05/25 05:04:14;;;;;;;2.13;0.60;;;8.80;99.90;;;;;;4989746;28;20041;-57
2021/05/25 05:06:40;;;;;;;3.08;0.85;;;9.10;99.90;;;;;;4995276;28;20034;-55
2021/05/25 05:09:06;;;;;;;1.42;0.50;;;9.40;99.90;;;;;;4987609;28;20038;-58
2021/05/25 05:11:31;;;;;;;1.02;0.47;;;9.70;99.90;;;;;;4990911;28;20030;-58
2021/05/25 05:13:58;;;;;;;2.05;0.60;;;9.90;99.90;;;;;;4990366;28;20078;-56
2021/05/25 05:16:24;;;;;;;3.00;0.65;;;9.80;99.90;;;;;;4987155;28;20022;-56
2021/05/25 05:18:50;;;;;;;2.90;0.93;;;9.70;99.90;;;;;;4982999;28;20026;-56
2021/05/25 05:21:15;;;;;;;3.65;0.52;;;9.70;99.90;;;;;;4990220;28;20554;-54
2021/05/25 05:23:41;;;;;;;3.47;0.60;;;9.80;99.90;;;;;;4988996;28;20395;-57
2021/05/25 05:26:08;;;;;;;1.63;0.63;;;9.80;99.90;;;;;;4989527;28;20073;-57
2021/05/25 05:28:34;;;;;;;2.45;0.60;;;9.90;99.90;;;;;;4989362;28;20029;-57
2021/05/25 05:30:59;;;;;;;0.70;0.40;;;9.90;99.90;;;;;;4988965;28;20030;-55
2021/05/25 05:33:25;;;;;;;0.80;0.40;;;9.90;99.90;;;;;;4988242;28;20083;-55
2021/05/25 05:35:51;;;;;;;5.82;0.60;;;10.00;99.90;;;;;;4989578;28;20030;-56
2021/05/25 05:38:16;;;;;;;5.20;0.40;;;10.00;99.90;;;;;;4988806;28;20541;-54
2021/05/25 05:40:42;;;;;;;0.88;0.40;;;9.90;99.90;;;;;;4983895;28;20023;-54
2021/05/25 05:43:08;;;;;;;3.30;0.47;;;9.70;99.90;;;;;;4989131;28;20050;-57
2021/05/25 05:45:34;;;;;;;5.00;0.50;;;9.50;99.90;;;;;;4978158;28;20018;-55
2021/05/25 05:48:00;;;;;;;1.55;0.40;;;9.40;99.90;;;;;;4991483;28;20027;-56
2021/05/25 05:50:26;;;;;;;3.00;0.50;;;9.30;99.90;;;;;;4984202;28;20515;-57
2021/05/25 05:52:52;;;;;;;1.15;0.38;;;9.30;99.90;;;;;;4990033;28;20108;-54
2021/05/25 05:55:18;;;;;;;5.18;0.50;;;9.30;99.90;;;;;;4993652;28;20477;-58
2021/05/25 05:57:46;;;;;;;0.77;0.30;;;9.40;99.90;;;;;;4989509;28;20021;-57
2021/05/25 06:00:13;;;;;;;0.50;0.30;;;9.50;99.90;;;;;;4991721;28;20018;-58
2021/05/25 06:02:38;;;;;;;1.58;0.70;;;9.50;99.90;;;;;;4989658;28;20069;-53
2021/05/25 06:05:05;;;;;;;0.40;0.40;;;9.50;99.90;;;;;;4992562;28;20472;-57
2021/05/25 06:07:30;;;;;;;2.08;0.35;;;9.50;99.90;;;;;;4992800;28;20030;-54
2021/05/25 06:09:58;;;;;;;1.60;0.30;;;9.50;99.90;;;;;;4991962;28;20033;-58
2021/05/25 06:12:23;;;;;;;2.45;0.70;;;9.40;99.90;;;;;;4992496;28;20022;-56
2021/05/25 06:14:49;;;;;;;1.50;0.52;;;9.30;99.90;;;;;;4993267;28;20481;-57
2021/05/25 06:17:15;;;;;;;3.50;0.60;;;9.20;99.90;;;;;;4992363;28;20033;-54
2021/05/25 06:19:40;;;;;;;5.43;0.50;;;9.10;99.90;;;;;;4986384;28;20109;-57
2021/05/25 06:22:06;;;;;;;1.92;0.50;;;9.00;99.90;;;;;;4990904;28;20034;-56
2021/05/25 06:24:31;;;;;;;8.15;0.80;;;9.00;99.90;;;;;;4993018;28;20022;-56
2021/05/25 06:26:57;;;;;;;4.40;0.30;;;8.90;99.90;;;;;;4992575;28;20038;-57
2021/05/25 06:29:22;;;;;;;0.95;0.80;;;8.90;99.90;;;;;;4992455;28;20105;-58
2021/05/25 06:31:48;;;;;;;1.35;0.30;;;8.90;99.90;;;;;;4992058;28;20502;-56
2021/05/25 06:34:13;;;;;;;1.25;0.20;;;8.80;99.90;;;;;;4988196;28;20034;-58
2021/05/25 06:36:39;;;;;;;1.33;0.40;;;8.90;99.90;;;;;;4993088;28;20019;-55
2021/05/25 06:39:05;;;;;;;0.95;0.40;;;9.00;99.90;;;;;;5002939;28;20112;-54
2021/05/25 06:41:31;;;;;;;2.72;0.30;;;9.10;99.90;;;;;;4994262;28;20030;-56
2021/05/25 06:43:56;;;;;;;0.60;0.20;;;9.20;99.90;;;;;;4992186;28;20037;-56
2021/05/25 06:46:22;;;;;;;1.13;0.30;;;9.20;99.90;;;;;;4992395;28;20981;-58
2021/05/25 06:48:47;;;;;;;1.75;0.70;;;9.40;99.90;;;;;;4990486;28;20416;-57
2021/05/25 06:51:13;;;;;;;6.10;2.10;;;9.50;99.90;;;;;;4987690;28;20030;-58
2021/05/25 06:53:39;;;;;;;2.88;1.20;;;9.70;99.90;;;;;;4989511;28;20109;-57
2021/05/25 06:56:05;;;;;;;21.75;13.35;;;9.90;99.90;;;;;;4988523;28;20397;-58
2021/05/25 06:58:32;;;;;;;21.23;11.10;;;10.10;99.90;;;;;;4990538;28;20034;-55
2021/05/25 07:00:58;;;;;;;10.15;7.55;;;10.30;99.90;;;;;;4994068;28;20022;-58
2021/05/25 07:03:23;;;;;;;5.35;2.75;;;10.50;99.90;;;;;;4994049;28;20161;-58
2021/05/25 07:05:49;;;;;;;1.80;1.70;;;10.30;99.90;;;;;;4992300;28;20138;-57
2021/05/25 07:08:15;;;;;;;0.90;0.90;;;10.10;99.90;;;;;;4991174;28;20034;-57
2021/05/25 07:10:40;;;;;;;0.75;0.60;;;10.10;99.90;;;;;;4990660;28;20026;-57
2021/05/25 07:13:11;;;;;;;1.00;0.68;;;10.00;99.90;;;;;;4988629;28;20022;-56
2021/05/25 07:15:37;;;;;;;1.42;0.77;;;9.80;99.90;;;;;;4992412;28;20022;-55
2021/05/25 07:18:02;;;;;;;1.02;0.52;;;9.80;99.90;;;;;;4991169;28;20503;-57
2021/05/25 07:20:28;;;;;;;0.80;0.70;;;9.90;99.90;;;;;;4991879;28;20026;-59
2021/05/25 07:22:54;;;;;;;0.85;0.60;;;9.80;99.90;;;;;;4993147;28;20041;-56
2021/05/25 07:25:25;;;;;;;1.67;0.60;;;9.80;99.90;;;;;;5002422;28;20499;-58
2021/05/25 07:27:51;;;;;;;1.13;0.80;;;9.80;99.90;;;;;;5000518;28;20026;-56
2021/05/25 07:30:17;;;;;;;0.93;0.70;;;9.90;99.90;;;;;;5005928;28;20484;-54
2021/05/25 07:32:44;;;;;;;2.30;0.60;;;10.00;99.90;;;;;;4996185;28;20120;-56
2021/05/25 07:35:11;;;;;;;1.45;0.60;;;10.00;99.90;;;;;;5006931;28;20022;-59
2021/05/25 07:37:39;;;;;;;0.93;0.50;;;10.10;99.90;;;;;;5002824;28;20558;-59
2021/05/25 07:40:06;;;;;;;0.73;0.50;;;10.20;99.90;;;;;;5002225;28;20030;-57
2021/05/25 07:42:32;;;;;;;2.42;0.43;;;10.30;99.90;;;;;;4995503;28;20062;-54
2021/05/25 07:44:57;;;;;;;1.80;0.60;;;10.30;99.90;;;;;;4997647;28;20060;-58
2021/05/25 07:47:26;;;;;;;1.15;0.65;;;10.50;99.90;;;;;;5001153;28;20402;-57
2021/05/25 07:49:52;;;;;;;3.33;0.82;;;10.50;99.90;;;;;;5006295;28;20022;-54
2021/05/25 07:52:17;;;;;;;3.13;2.17;;;10.30;99.90;;;;;;5005620;28;20108;-59
2021/05/25 07:54:43;;;;;;;1.70;1.10;;;10.10;99.90;;;;;;4916887;28;20063;-56
2021/05/25 07:57:09;;;;;;;4.22;1.00;;;10.10;99.90;;;;;;4923925;28;20058;-57
2021/05/25 07:59:36;;;;;;;4.22;2.42;;;9.80;99.90;;;;;;4988143;28;20030;-57
2021/05/25 08:02:02;;;;;;;2.70;1.65;;;9.60;99.90;;;;;;5003956;28;20056;-57
2021/05/25 08:04:27;;;;;;;1.58;0.65;;;9.50;99.90;;;;;;5005845;28;20427;-57
2021/05/25 08:06:53;;;;;;;4.78;1.40;;;9.30;99.90;;;;;;4995356;28;20523;-59
2021/05/25 08:09:18;;;;;;;3.15;0.90;;;9.30;99.90;;;;;;4994866;28;20564;-57
2021/05/25 08:11:44;;;;;;;0.90;0.43;;;9.20;99.90;;;;;;4978565;28;20137;-57
2021/05/25 08:14:10;;;;;;;2.67;0.77;;;9.20;99.90;;;;;;5001443;28;20034;-56
2021/05/25 08:16:39;;;;;;;0.95;0.60;;;9.40;99.90;;;;;;4976416;28;20049;-57
2021/05/25 08:21:34;;;;;;;1.67;0.70;;;9.60;99.90;;;;;;5006391;28;20029;-55
2021/05/25 08:24:00;;;;;;;3.83;0.90;;;9.80;99.90;;;;;;4933762;28;20077;-52
2021/05/25 08:26:27;;;;;;;1.88;0.73;;;10.20;99.90;;;;;;4990928;28;20042;-58
2021/05/25 08:28:54;;;;;;;2.63;0.60;;;10.60;99.90;;;;;;5006580;28;20034;-50
2021/05/25 08:31:20;;;;;;;3.63;0.70;;;11.40;99.90;;;;;;5005564;28;20026;-55
2021/05/25 08:33:46;;;;;;;1.25;0.60;;;11.80;99.90;;;;;;5006803;28;20053;-56
2021/05/25 08:36:14;;;;;;;2.15;1.08;;;12.00;99.90;;;;;;4984557;28;20069;-57
2021/05/25 08:38:40;;;;;;;0.93;0.70;;;12.60;99.90;;;;;;4989551;28;20030;-53
2021/05/25 08:41:06;;;;;;;3.58;0.80;;;12.90;99.90;;;;;;4990424;28;20395;-55
2021/05/25 08:43:32;;;;;;;1.05;0.85;;;12.90;99.90;;;;;;4989234;28;20061;-57
2021/05/25 08:45:58;;;;;;;3.08;0.93;;;12.60;99.90;;;;;;4984148;28;20061;-58
2021/05/25 08:48:24;;;;;;;1.23;0.60;;;12.60;99.90;;;;;;4989186;28;20077;-58
2021/05/25 08:50:52;;;;;;;5.10;0.90;;;12.40;99.90;;;;;;4990256;28;20026;-53
2021/05/25 08:53:18;;;;;;;0.75;0.55;;;12.30;99.90;;;;;;4987526;28;20028;-57
2021/05/25 08:55:48;;;;;;;1.38;0.70;;;11.90;99.90;;;;;;4989811;28;20030;-54
2021/05/25 08:58:14;;;;;;;4.80;0.93;;;11.50;99.90;;;;;;4989168;28;20105;-54
2021/05/25 09:00:39;;;;;;;1.02;0.50;;;11.60;99.90;;;;;;4989304;28;20117;-53
2021/05/25 09:03:05;;;;;;;0.47;0.47;;;11.80;99.90;;;;;;4989721;28;20123;-58
2021/05/25 09:05:32;;;;;;;1.00;0.30;;;11.90;99.90;;;;;;4990348;28;20022;-57
2021/05/25 09:07:59;;;;;;;0.85;0.50;;;11.90;99.90;;;;;;4989885;28;20018;-57
2021/05/25 09:10:36;;;;;;;1.67;0.70;;;12.20;99.90;;;;;;4989554;28;20041;-57
2021/05/25 09:13:04;;;;;;;1.15;0.52;;;13.40;99.90;;;;;;4978729;28;20456;-57
2021/05/25 09:15:38;;;;;;;1.00;0.80;;;13.80;99.90;;;;;;4986961;28;20018;-57
2021/05/25 09:18:13;;;;;;;2.20;1.25;;;14.00;99.90;;;;;;4982268;28;20085;-58
2021/05/25 09:20:54;;;;;;;2.25;1.23;;;14.80;99.90;;;;;;4992082;28;20084;-58
2021/05/25 09:23:38;;;;;;;2.47;1.35;;;15.30;99.90;;;;;;4971765;28;20048;-59
2021/05/25 09:26:12;;;;;;;5.28;1.95;;;15.60;99.90;;;;;;4993315;28;20057;-58
2021/05/25 09:28:55;;;;;;;5.45;1.67;;;16.20;99.90;;;;;;4993172;28;20038;-59
2021/05/25 09:31:42;;;;;;;1.27;1.17;;;14.90;99.90;;;;;;4993692;28;20022;-57
2021/05/25 09:34:12;;;;;;;5.15;3.28;;;13.80;99.90;;;;;;4992982;28;20027;-57
2021/05/25 09:36:59;;;;;;;10.98;4.95;;;12.90;99.90;;;;;;4970903;28;20061;-56
2021/05/25 09:39:48;;;;;;;1.02;0.90;;;12.80;99.90;;;;;;4953457;28;20042;-57
2021/05/25 09:42:17;;;;;;;4.43;1.02;;;12.90;99.90;;;;;;4990417;28;20031;-57
2021/05/25 09:45:02;;;;;;;2.95;0.73;;;12.70;99.90;;;;;;4993284;28;20019;-58
2021/05/25 09:48:03;;;;;;;1.70;1.02;;;12.50;99.90;;;;;;4989033;28;20031;-58
2021/05/25 09:50:29;;;;;;;6.60;4.18;;;12.70;99.90;;;;;;4986348;28;20053;-54
2021/05/25 09:53:17;;;;;;;0.80;0.73;;;13.90;99.90;;;;;;4991138;28;20033;-58
2021/05/25 09:55:47;;;;;;;2.35;1.50;;;14.60;99.90;;;;;;4992190;28;20022;-58
2021/05/25 09:58:13;;;;;;;2.78;1.95;;;15.20;99.90;;;;;;4995993;28;20150;-57
2021/05/25 10:00:40;;;;;;;6.63;5.10;;;14.70;99.90;;;;;;5001865;28;20050;-58
2021/05/25 10:03:16;;;;;;;1.10;1.00;;;14.30;99.90;;;;;;4996238;28;20043;-59
2021/05/25 10:05:45;;;;;;;5.28;4.47;;;13.60;99.90;;;;;;4990335;28;20085;-57
2021/05/25 10:08:12;;;;;;;1.15;1.05;;;13.20;99.90;;;;;;4989300;28;20038;-55
2021/05/25 10:10:38;;;;;;;2.30;1.42;;;12.80;99.90;;;;;;4995169;28;20047;-56
2021/05/25 10:13:04;;;;;;;7.90;5.55;;;13.30;99.90;;;;;;4988935;28;20494;-55
2021/05/25 10:15:30;;;;;;;1.52;1.17;;;13.70;99.90;;;;;;4989894;28;20137;-54
2021/05/25 10:18:11;;;;;;;2.33;1.60;;;14.20;99.90;;;;;;4990983;28;20380;-54
2021/05/25 10:20:37;;;;;;;2.63;1.95;;;13.80;99.90;;;;;;4963531;28;20046;-54
2021/05/25 10:23:03;;;;;;;2.83;1.50;;;13.60;99.90;;;;;;4986495;28;20510;-55
2021/05/25 10:25:32;;;;;;;2.85;1.05;;;12.90;99.90;;;;;;4920717;28;20141;-57
2021/05/25 10:27:58;;;;;;;2.97;1.05;;;12.50;99.90;;;;;;4988570;28;20420;-58
2021/05/25 10:30:24;;;;;;;3.97;2.20;;;12.30;99.90;;;;;;4990575;28;20122;-57
2021/05/25 10:32:51;;;;;;;2.63;1.13;;;12.20;99.90;;;;;;4970595;28;20145;-56
2021/05/25 10:35:19;;;;;;;2.55;1.67;;;11.90;99.90;;;;;;4917675;28;20053;-58
2021/05/25 10:38:07;;;;;;;3.97;1.50;;;12.00;99.90;;;;;;4987518;28;20065;-57
2021/05/25 10:40:46;;;;;;;3.65;1.52;;;11.70;99.90;;;;;;4977308;28;20566;-57
2021/05/25 10:43:44;;;;;;;4.07;1.95;;;11.50;99.90;;;;;;4991763;28;20038;-57
2021/05/25 10:46:09;;;;;;;2.90;1.63;;;11.50;99.90;;;;;;4972967;28;20043;-56
2021/05/25 10:48:55;;;;;;;5.50;2.20;;;11.30;99.90;;;;;;4988350;28;20538;-58
2021/05/25 10:51:21;;;;;;;5.10;2.08;;;11.30;99.90;;;;;;4941640;28;20518;-53
2021/05/25 10:54:25;;;;;;;6.88;3.58;;;11.20;99.90;;;;;;4936374;28;20054;-56
2021/05/25 10:56:52;;;;;;;6.50;2.22;;;11.00;99.90;;;;;;4988902;28;20025;-58
2021/05/25 10:59:19;;;;;;;3.97;1.60;;;11.00;99.90;;;;;;4997708;28;20480;-57
2021/05/25 11:01:53;;;;;;;11.60;3.33;;;11.10;99.90;;;;;;4998827;28;20033;-56
2021/05/25 11:04:23;;;;;;;2.90;1.98;;;11.40;99.90;;;;;;5003511;28;20026;-57
2021/05/25 11:06:50;;;;;;;6.47;3.72;;;11.90;99.90;;;;;;5000856;28;20022;-57
2021/05/25 11:09:29;;;;;;;4.80;2.10;;;12.20;99.90;;;;;;5000426;28;20018;-58
2021/05/25 11:12:17;;;;;;;4.55;2.20;;;12.50;99.90;;;;;;4999868;28;20109;-58
2021/05/25 11:15:17;;;;;;;5.88;2.03;;;12.10;99.90;;;;;;4990666;28;20120;-58
2021/05/25 11:17:46;;;;;;;3.67;1.55;;;11.80;99.90;;;;;;4989465;28;20088;-59
2021/05/25 11:20:32;;;;;;;5.30;1.38;;;11.50;99.90;;;;;;4923298;28;20416;-59
2021/05/25 11:22:57;;;;;;;7.10;1.52;;;11.50;99.90;;;;;;4997947;28;20447;-57
2021/05/25 11:25:39;;;;;;;2.40;1.15;;;11.70;99.90;;;;;;4989555;28;20066;-58
2021/05/25 11:28:05;;;;;;;2.70;1.20;;;11.90;99.90;;;;;;4991744;28;20022;-56
2021/05/25 11:30:31;;;;;;;5.00;1.48;;;12.30;99.90;;;;;;4979541;28;20086;-58
2021/05/25 11:33:00;;;;;;;3.22;1.10;;;12.40;99.90;;;;;;4989374;28;20018;-56
2021/05/25 11:35:28;;;;;;;3.13;1.23;;;12.30;99.90;;;;;;4973131;28;20486;-58
2021/05/25 11:38:03;;;;;;;2.35;0.88;;;12.40;99.90;;;;;;4937395;28;20034;-56
2021/05/25 11:40:35;;;;;;;2.83;1.13;;;12.70;99.90;;;;;;4982415;28;20124;-59
2021/05/25 11:43:01;;;;;;;8.77;1.63;;;12.90;99.90;;;;;;4987290;28;20038;-57
2021/05/25 11:45:28;;;;;;;6.30;1.52;;;13.30;99.90;;;;;;4987444;28;20101;-58
2021/05/25 11:47:56;;;;;;;8.95;2.90;;;13.60;99.90;;;;;;4989595;28;20033;-58
2021/05/25 11:50:22;;;;;;;3.33;1.85;;;13.90;99.90;;;;;;4990117;28;20557;-58
2021/05/25 11:52:52;;;;;;;3.92;1.30;;;14.10;99.90;;;;;;4989987;28;20635;-59
2021/05/25 11:55:20;;;;;;;4.40;1.60;;;14.30;99.90;;;;;;4990494;28;20034;-59
2021/05/25 11:57:50;;;;;;;5.18;1.70;;;14.40;99.90;;;;;;4989292;28;20523;-57
2021/05/25 12:00:18;;;;;;;6.80;2.67;;;14.50;99.90;;;;;;4990186;28;20033;-57
2021/05/25 12:02:48;;;;;;;5.25;1.77;;;14.70;99.90;;;;;;5004068;28;20065;-59
2021/05/25 12:05:34;;;;;;;5.72;1.63;;;14.60;99.90;;;;;;5010635;28;20519;-58
2021/05/25 12:08:07;;;;;;;5.05;1.65;;;14.80;99.90;;;;;;5003480;28;20501;-61
2021/05/25 12:10:42;;;;;;;4.68;1.55;;;15.00;99.90;;;;;;4977299;28;20535;-60
2021/05/25 12:13:12;;;;;;;5.38;1.95;;;15.00;99.90;;;;;;4981985;28;20027;-56
2021/05/25 12:15:41;;;;;;;3.80;1.83;;;14.90;99.90;;;;;;4938018;28;20050;-58
2021/05/25 12:18:12;;;;;;;8.00;1.92;;;15.00;99.90;;;;;;4979765;28;20027;-60
2021/05/25 12:20:50;;;;;;;6.40;2.65;;;14.70;99.90;;;;;;4926415;28;20073;-58
2021/05/25 12:23:20;;;;;;;6.15;1.80;;;14.30;99.90;;;;;;5010922;28;20053;-60
2021/05/25 12:25:54;;;;;;;3.55;1.60;;;13.90;99.90;;;;;;5020141;28;20025;-58
2021/05/25 12:28:23;;;;;;;5.20;1.73;;;13.90;99.90;;;;;;5011241;28;20030;-60
2021/05/25 12:30:55;;;;;;;3.58;1.42;;;14.30;99.90;;;;;;5004347;28;20033;-56
2021/05/25 12:33:27;;;;;;;5.95;1.70;;;14.60;99.90;;;;;;4998927;28;20026;-60
2021/05/25 12:35:53;;;;;;;4.47;0.95;;;14.90;99.90;;;;;;4997019;28;20767;-55
2021/05/25 12:38:22;;;;;;;9.48;3.47;;;14.80;98.90;;;;;;5000903;28;20034;-58
2021/05/25 12:40:59;;;;;;;18.45;7.05;;;14.80;99.90;;;;;;4999516;28;20034;-56
2021/05/25 12:43:28;;;;;;;9.15;3.42;;;14.30;99.90;;;;;;4989686;28;20034;-54
2021/05/25 12:46:04;;;;;;;7.90;3.60;;;13.50;99.90;;;;;;4994482;28;20037;-53
2021/05/25 12:48:35;;;;;;;3.83;1.30;;;13.00;99.90;;;;;;4999577;28;20122;-54
2021/05/25 12:51:00;;;;;;;2.40;1.20;;;12.20;99.90;;;;;;5000914;28;20030;-55
2021/05/25 12:53:26;;;;;;;5.05;1.17;;;11.70;99.90;;;;;;5003006;28;20041;-53
2021/05/25 12:55:52;;;;;;;4.20;1.13;;;11.00;99.90;;;;;;5006087;28;20546;-56
2021/05/25 12:58:41;;;;;;;5.43;0.90;;;10.40;99.90;;;;;;5005704;28;20105;-53
2021/05/25 13:01:30;;;;;;;6.97;1.05;;;9.90;99.90;;;;;;4974075;28;20039;-53
2021/05/25 13:04:01;;;;;;;8.52;1.10;;;9.50;99.90;;;;;;4980446;28;20412;-54